Terminal Aerodrome Forecast
Issued by NWS Midland/Odessa, TX

Home | Current Version | Previous Version | Text Only | Print | Product List | Glossary On
Versions: 1 2 3 4 5 6 7 8 9 10 11 12 13 14 15 16 17 18 19 20 21 22 23 24 25 26 27 28 29
000
FTUS44 KMAF 300521
TAFMAF
TAF
KMAF 300521Z 3006/3106 10007KT P6SM SCT050 BKN110
     FM301200 17007KT P6SM FEW250
     FM301600 13010G20KT P6SM SCT060 SCT250
     FM310200 15006KT P6SM FEW200=

USA.gov is the U.S. government's official web portal to all federal, state and local government web resources and services.